Time;durP1;ratioP1;P1;durP2;ratioP2;P2;SDS_P1;SDS_P2;PMS_P1;PMS_P2;Temp;Humidity;BMP_temperature;BMP_pressure;BME280_temperature;BME280_humidity;BME280_pressure;Samples;Min_cycle;Max_cycle;Signal;HPM_P1;HPM_P2
2021/05/26 00:01:09;;;;;;;15.68;9.35;;;;;;;15.03;76.15;101295.13;1749552;82;20925;-75
2021/05/26 00:03:37;;;;;;;10.70;9.45;;;;;;;15.04;76.00;101299.00;1749416;82;21865;-75
2021/05/26 00:06:04;;;;;;;13.00;8.78;;;;;;;15.07;75.78;101293.52;1749462;82;20974;-74
2021/05/26 00:08:34;;;;;;;13.38;8.98;;;;;;;15.09;75.82;101295.56;1749634;82;20993;-75
2021/05/26 00:11:07;;;;;;;14.13;8.15;;;;;;;15.09;75.58;101289.44;1749433;82;21037;-74
2021/05/26 00:13:34;;;;;;;10.32;7.50;;;;;;;15.09;75.58;101289.44;1748705;82;20977;-75
2021/05/26 00:16:03;;;;;;;11.43;8.90;;;;;;;15.09;75.53;101286.31;1749614;82;21108;-75
2021/05/26 00:18:31;;;;;;;13.95;8.80;;;;;;;15.09;75.61;101281.03;1749398;80;20891;-75
2021/05/26 00:20:58;;;;;;;9.50;7.83;;;;;;;15.10;75.71;101273.97;1749814;82;20890;-75
2021/05/26 00:23:25;;;;;;;16.05;8.43;;;;;;;15.15;75.36;101280.27;1749542;82;21482;-75
2021/05/26 00:25:52;;;;;;;9.88;8.35;;;;;;;15.15;75.36;101280.27;1749684;82;20871;-76
2021/05/26 00:28:19;;;;;;;10.55;8.40;;;;;;;15.16;75.72;101271.37;1749528;82;21053;-75
2021/05/26 00:30:48;;;;;;;12.53;7.42;;;;;;;15.17;75.62;101267.80;1749559;80;20954;-75
2021/05/26 00:33:16;;;;;;;9.25;7.87;;;;;;;15.17;75.64;101269.11;1749408;82;20954;-75
2021/05/26 00:35:43;;;;;;;13.83;8.65;;;;;;;15.17;74.95;101265.98;1749561;82;21033;-74
2021/05/26 00:38:11;;;;;;;9.73;7.67;;;;;;;15.17;74.95;101265.98;1749457;82;21340;-74
2021/05/26 00:40:38;;;;;;;10.15;8.33;;;;;;;15.17;75.07;101271.75;1749344;82;21060;-76
2021/05/26 00:43:06;;;;;;;12.00;6.80;;;;;;;15.17;75.07;101271.75;1749485;82;20950;-74
2021/05/26 00:45:32;;;;;;;9.88;7.30;;;;;;;15.13;75.22;101270.63;1749504;82;20874;-75
2021/05/26 00:48:00;;;;;;;11.40;7.15;;;;;;;15.12;75.33;101268.11;1749439;80;20942;-75
2021/05/26 00:50:33;;;;;;;8.15;6.00;;;;;;;15.11;75.45;101263.77;1749572;80;20919;-75
2021/05/26 00:53:06;;;;;;;9.15;6.85;;;;;;;15.10;75.52;101266.05;1749784;82;21108;-77
2021/05/26 00:55:33;;;;;;;10.55;6.83;;;;;;;15.09;75.48;101266.50;1749470;80;20858;-77
2021/05/26 00:58:00;;;;;;;8.88;6.72;;;;;;;15.08;75.43;101264.83;1749532;80;20918;-76
2021/05/26 01:00:29;;;;;;;7.50;6.70;;;;;;;15.08;75.42;101267.47;1749443;82;20986;-75
2021/05/26 01:02:57;;;;;;;10.58;6.80;;;;;;;15.06;75.48;101269.84;1747894;82;20926;-75
2021/05/26 01:05:27;;;;;;;11.53;7.58;;;;;;;15.06;75.48;101269.84;1749441;82;20974;-75
2021/05/26 01:07:54;;;;;;;7.80;6.70;;;;;;;15.04;75.40;101267.30;1749316;80;21041;-76
2021/05/26 01:10:26;;;;;;;6.00;5.50;;;;;;;15.03;75.43;101270.91;1749595;82;20887;-76
2021/05/26 01:12:58;;;;;;;7.12;6.12;;;;;;;15.02;75.53;101265.23;1748619;82;21486;-76
2021/05/26 01:15:28;;;;;;;8.40;6.05;;;;;;;15.01;75.53;101270.16;1749516;80;20950;-76
2021/05/26 01:17:55;;;;;;;8.73;5.75;;;;;;;14.96;75.73;101268.28;1749479;82;21005;-75
2021/05/26 01:20:29;;;;;;;8.85;6.12;;;;;;;14.96;75.88;101263.48;1748836;80;20950;-76
2021/05/26 01:23:00;;;;;;;7.67;5.90;;;;;;;14.93;76.04;101257.95;1721762;82;20927;-76
2021/05/26 01:25:29;;;;;;;10.90;6.83;;;;;;;14.91;76.24;101264.64;1749808;80;20922;-77
2021/05/26 01:27:58;;;;;;;6.50;6.00;;;;;;;14.90;76.53;101262.12;1749367;80;20946;-76
2021/05/26 01:30:25;;;;;;;6.45;5.80;;;;;;;14.89;76.75;101259.94;1749355;82;21846;-77
2021/05/26 01:32:53;;;;;;;9.30;5.37;;;;;;;14.90;77.09;101264.77;1749332;82;20915;-75
2021/05/26 01:35:21;;;;;;;7.33;6.65;;;;;;;14.91;77.25;101255.88;1748752;82;20925;-76
2021/05/26 01:37:48;;;;;;;7.00;5.75;;;;;;;14.93;77.46;101257.95;1749413;82;20870;-76
2021/05/26 01:40:17;;;;;;;7.03;5.92;;;;;;;14.96;77.67;101257.72;1749571;82;21458;-76
2021/05/26 01:42:45;;;;;;;7.08;6.10;;;;;;;14.98;77.75;101255.83;1749401;82;21092;-76
2021/05/26 01:45:16;;;;;;;8.93;5.42;;;;;;;15.01;77.61;101255.64;1716716;82;21479;-76
2021/05/26 01:47:44;;;;;;;9.28;5.28;;;;;;;15.02;77.29;101258.63;1743530;82;20918;-76
2021/05/26 01:50:20;;;;;;;8.18;5.22;;;;;;;15.05;76.94;101259.77;1743564;82;20938;-75
2021/05/26 01:52:53;;;;;;;10.88;5.80;;;;;;;15.07;76.46;101256.55;1743599;82;20906;-76
2021/05/26 01:55:20;;;;;;;6.10;5.58;;;;;;;15.08;76.14;101261.34;1743728;82;21384;-76
2021/05/26 01:57:48;;;;;;;5.50;5.00;;;;;;;15.05;76.02;101260.21;1743544;82;20962;-75
2021/05/26 02:00:20;;;;;;;6.78;6.10;;;;;;;15.02;76.01;101259.95;1743301;82;21439;-76
2021/05/26 02:02:47;;;;;;;11.25;9.48;;;;;;;14.99;76.16;101261.49;1743543;81;21002;-76
2021/05/26 02:05:15;;;;;;;11.33;7.25;;;;;;;14.97;76.27;101266.03;1714306;82;21048;-76
2021/05/26 02:07:43;;;;;;;9.25;6.72;;;;;;;14.96;76.51;101263.48;1743543;82;21078;-75
2021/05/26 02:10:14;;;;;;;7.33;5.83;;;;;;;14.96;76.65;101268.77;1743552;82;20883;-74
2021/05/26 02:12:45;;;;;;;6.60;5.97;;;;;;;14.96;76.73;101274.89;1743572;82;20890;-75
2021/05/26 02:15:14;;;;;;;12.47;8.00;;;;;;;14.95;76.89;101275.86;1743541;82;20890;-74
2021/05/26 02:17:43;;;;;;;7.33;6.62;;;;;;;14.95;77.20;101283.78;1743668;82;20867;-75
2021/05/26 02:20:11;;;;;;;9.23;6.37;;;;;;;14.98;77.47;101276.12;1743576;82;21059;-75
2021/05/26 02:22:39;;;;;;;6.12;5.40;;;;;;;15.00;77.56;101283.47;1743472;82;20874;-73
2021/05/26 02:25:09;;;;;;;6.75;6.05;;;;;;;15.03;77.57;101281.92;1743590;82;20926;-75
2021/05/26 02:27:36;;;;;;;9.73;5.53;;;;;;;15.04;77.54;101280.51;1743482;81;21443;-74
2021/05/26 02:30:07;;;;;;;7.00;6.30;;;;;;;15.08;77.57;101287.28;1743611;82;21049;-75
2021/05/26 02:32:34;;;;;;;10.03;7.80;;;;;;;15.11;77.64;101286.22;1743574;82;21665;-74
2021/05/26 02:35:01;;;;;;;12.33;9.50;;;;;;;15.13;77.95;101286.96;1743381;82;20903;-75
2021/05/26 02:37:28;;;;;;;8.15;6.15;;;;;;;15.17;78.39;101294.22;1743630;81;21031;-76
2021/05/26 02:39:57;;;;;;;7.37;6.50;;;;;;;15.21;78.46;101295.22;1743386;82;21025;-75
2021/05/26 02:42:24;;;;;;;8.38;6.22;;;;;;;15.28;78.06;101299.13;1743562;81;20982;-75
2021/05/26 02:44:51;;;;;;;6.50;5.55;;;;;;;15.36;77.57;101301.70;1745567;81;21059;-75
2021/05/26 02:47:17;;;;;;;11.90;6.60;;;;;;;15.42;77.17;101303.45;1749469;82;21471;-75
2021/05/26 02:49:45;;;;;;;7.83;6.97;;;;;;;15.45;76.97;101303.25;1749366;82;20942;-79
2021/05/26 02:52:12;;;;;;;8.30;7.47;;;;;;;15.48;76.95;101303.02;1749338;82;21017;-77
2021/05/26 02:54:39;;;;;;;10.98;8.98;;;;;;;15.51;77.07;101312.53;1749399;80;20874;-76
2021/05/26 02:57:07;;;;;;;14.38;8.38;;;;;;;15.55;77.15;101318.82;1749445;82;21095;-78
2021/05/26 02:59:48;;;;;;;9.23;8.30;;;;;;;15.58;77.20;101311.14;1746912;82;20938;-78
2021/05/26 03:02:18;;;;;;;13.32;8.65;;;;;;;15.61;77.24;101313.59;1749414;82;20941;-74
2021/05/26 03:04:59;;;;;;;13.38;8.43;;;;;;;15.65;77.21;101316.40;1746973;82;20906;-75
2021/05/26 03:07:27;;;;;;;11.18;8.20;;;;;;;15.65;77.25;101313.75;1749552;82;20961;-75
2021/05/26 03:09:55;;;;;;;11.70;9.75;;;;;;;15.65;77.52;101315.53;1749510;82;21100;-76
2021/05/26 03:12:24;;;;;;;11.50;9.48;;;;;;;15.68;77.98;101317.98;1749998;80;21013;-75
2021/05/26 03:14:55;;;;;;;9.85;8.20;;;;;;;15.74;78.06;101308.33;1753530;82;20966;-76
2021/05/26 03:17:27;;;;;;;14.60;8.58;;;;;;;15.83;77.82;101314.73;1752089;80;21045;-77
2021/05/26 03:19:52;;;;;;;15.65;9.55;;;;;;;15.99;77.48;101323.29;1750209;82;21344;-76
2021/05/26 03:22:22;;;;;;;17.05;10.82;;;;;;;15.99;77.48;101323.29;1726019;80;21109;-76
2021/05/26 03:25:10;;;;;;;17.57;11.18;;;;;;;16.07;77.62;101321.41;1750585;82;21455;-77
2021/05/26 03:27:38;;;;;;;17.00;10.38;;;;;;;16.16;77.52;101321.60;1749334;80;20985;-76
2021/05/26 03:30:12;;;;;;;17.70;11.83;;;;;;;16.25;77.36;101320.55;1749349;82;20874;-76
2021/05/26 03:32:40;;;;;;;15.63;10.58;;;;;;;16.31;77.35;101330.70;1749534;82;20922;-76
2021/05/26 03:35:09;;;;;;;12.88;10.15;;;;;;;16.36;77.18;101336.03;1722010;82;21531;-77
2021/05/26 03:37:36;;;;;;;17.77;10.60;;;;;;;16.41;77.11;101334.83;1749453;82;20990;-76
2021/05/26 03:40:09;;;;;;;15.75;9.43;;;;;;;16.45;77.00;101335.84;1749484;82;20938;-74
2021/05/26 03:42:39;;;;;;;13.75;10.82;;;;;;;16.48;76.94;101337.41;1749607;81;20993;-75
2021/05/26 03:45:10;;;;;;;21.85;10.78;;;;;;;16.53;76.91;101335.27;1748499;81;20990;-76
2021/05/26 03:47:37;;;;;;;14.05;10.30;;;;;;;16.56;77.01;101339.00;1749406;80;21067;-75
2021/05/26 03:50:12;;;;;;;13.72;10.60;;;;;;;16.63;77.15;101340.26;1738904;81;20883;-75
2021/05/26 03:52:37;;;;;;;16.97;11.43;;;;;;;16.81;77.25;101348.67;1721717;82;21461;-75
2021/05/26 03:55:11;;;;;;;14.47;11.10;;;;;;;16.81;77.25;101348.67;1749385;82;21005;-76
2021/05/26 03:57:39;;;;;;;18.12;11.40;;;;;;;16.92;76.88;101350.52;1749492;82;20902;-76
2021/05/26 04:00:10;;;;;;;22.55;12.13;;;;;;;17.11;76.17;101345.98;1749404;82;20950;-76
2021/05/26 04:02:39;;;;;;;26.15;12.73;;;;;;;17.11;76.17;101345.98;1748080;82;20926;-79
2021/05/26 04:05:08;;;;;;;18.67;11.53;;;;;;;17.25;75.46;101351.55;1749553;82;20914;-76
2021/05/26 04:07:36;;;;;;;24.05;11.97;;;;;;;17.42;75.02;101352.44;1749446;82;21395;-77
2021/05/26 04:10:07;;;;;;;21.48;12.53;;;;;;;17.62;74.64;101353.54;1749453;82;20954;-76
2021/05/26 04:12:36;;;;;;;23.83;11.78;;;;;;;17.91;74.25;101354.42;1722037;82;21466;-78
2021/05/26 04:15:07;;;;;;;15.78;12.00;;;;;;;18.28;74.09;101348.83;1748710;82;21013;-76
2021/05/26 04:17:48;;;;;;;22.95;11.22;;;;;;;18.75;73.63;101350.72;1744917;80;21400;-78
2021/05/26 04:20:20;;;;;;;16.73;11.38;;;;;;;19.29;72.36;101351.05;1747517;82;20878;-77
2021/05/26 04:22:47;;;;;;;20.27;11.85;;;;;;;19.87;70.98;101355.35;1749571;82;21419;-76
2021/05/26 04:25:15;;;;;;;25.65;12.65;;;;;;;20.42;69.14;101356.27;1749326;82;21077;-79
2021/05/26 04:27:42;;;;;;;25.90;12.30;;;;;;;20.96;67.38;101359.40;1749392;82;20914;-79
2021/05/26 04:30:13;;;;;;;18.12;11.15;;;;;;;21.44;65.42;101356.34;1749272;82;20949;-77
2021/05/26 04:32:42;;;;;;;22.93;10.68;;;;;;;21.90;63.90;101355.46;1749367;80;20870;-79
2021/05/26 04:35:14;;;;;;;30.30;10.82;;;;;;;22.36;62.38;101347.47;1748610;82;20918;-82
2021/05/26 04:37:41;;;;;;;32.25;11.40;;;;;;;22.79;60.93;101360.60;1749369;82;21896;-78
2021/05/26 04:40:09;;;;;;;23.80;11.08;;;;;;;23.18;59.79;101354.91;1749325;82;20929;-75
2021/05/26 04:42:36;;;;;;;35.70;13.48;;;;;;;23.54;58.74;101356.99;1749533;80;20926;-77
2021/05/26 04:45:05;;;;;;;34.25;11.78;;;;;;;23.88;57.96;101352.16;1746301;81;21621;-76
2021/05/26 04:47:31;;;;;;;24.65;10.23;;;;;;;24.24;56.81;101355.95;1735627;82;20927;-77
2021/05/26 04:49:58;;;;;;;21.37;12.03;;;;;;;24.59;56.06;101352.70;1735355;82;21611;-77
2021/05/26 04:52:25;;;;;;;26.25;11.45;;;;;;;24.91;54.69;101357.73;1735283;81;20966;-76
2021/05/26 04:54:52;;;;;;;25.55;12.70;;;;;;;25.22;54.05;101353.88;1735282;82;20891;-76
2021/05/26 04:57:19;;;;;;;25.50;11.28;;;;;;;25.52;53.39;101355.48;1735414;81;20930;-76
2021/05/26 04:59:46;;;;;;;21.37;10.78;;;;;;;25.86;52.23;101353.87;1735546;82;20994;-77
2021/05/26 05:02:14;;;;;;;19.00;11.15;;;;;;;26.24;51.16;101352.70;1735653;81;21228;-74
2021/05/26 05:04:41;;;;;;;20.68;11.45;;;;;;;26.57;50.44;101343.94;1735400;81;20903;-72
2021/05/26 05:07:07;;;;;;;20.72;10.58;;;;;;;26.90;49.51;101342.30;1735518;82;21431;-72
2021/05/26 05:09:34;;;;;;;19.30;10.78;;;;;;;27.20;49.10;101341.86;1735215;82;20966;-72
2021/05/26 05:12:01;;;;;;;18.85;10.20;;;;;;;27.47;48.71;101350.36;1735310;82;21388;-73
2021/05/26 05:14:29;;;;;;;14.30;9.83;;;;;;;27.75;48.28;101350.55;1735423;82;21198;-73
2021/05/26 05:16:57;;;;;;;16.30;9.13;;;;;;;28.00;47.37;101352.44;1735358;82;21496;-73
2021/05/26 05:19:24;;;;;;;23.07;10.68;;;;;;;28.28;46.43;101353.91;1735456;82;20923;-73
2021/05/26 05:21:51;;;;;;;18.00;10.50;;;;;;;28.53;45.57;101350.04;1735427;82;21417;-74
2021/05/26 05:24:20;;;;;;;21.85;11.53;;;;;;;28.52;44.47;101345.13;1735516;81;20951;-73
2021/05/26 05:26:47;;;;;;;20.23;11.00;;;;;;;28.43;44.39;101352.48;1735378;81;21427;-73
2021/05/26 05:29:13;;;;;;;21.12;12.47;;;;;;;28.36;44.70;101352.94;1735372;82;20907;-71
2021/05/26 05:31:40;;;;;;;20.88;11.78;;;;;;;28.38;44.16;101354.93;1735611;81;20919;-72
2021/05/26 05:34:10;;;;;;;18.25;11.73;;;;;;;28.40;43.64;101352.05;1735439;81;20982;-72
2021/05/26 05:36:37;;;;;;;18.02;11.00;;;;;;;28.46;43.50;101351.29;1735534;82;20931;-72
2021/05/26 05:39:05;;;;;;;21.95;11.22;;;;;;;28.54;43.68;101347.12;1735413;81;21478;-71
2021/05/26 05:41:31;;;;;;;19.55;10.50;;;;;;;28.65;42.81;101352.53;1735310;81;20927;-75
2021/05/26 05:43:58;;;;;;;20.43;10.48;;;;;;;28.75;42.93;101353.05;1735571;82;20911;-75
2021/05/26 05:46:26;;;;;;;23.90;9.43;;;;;;;28.94;41.81;101351.00;1740059;81;20986;-74
2021/05/26 05:48:52;;;;;;;15.72;9.05;;;;;;;29.10;41.93;101351.29;1743634;81;20934;-73
2021/05/26 05:51:19;;;;;;;11.65;8.15;;;;;;;29.18;42.16;101350.29;1743675;82;21006;-73
2021/05/26 05:53:46;;;;;;;10.72;7.30;;;;;;;29.29;41.05;101352.97;1743455;82;20997;-74
2021/05/26 05:56:13;;;;;;;21.62;7.85;;;;;;;29.36;41.18;101353.00;1743727;82;20891;-74
2021/05/26 05:58:40;;;;;;;13.22;7.60;;;;;;;29.47;40.93;101352.45;1743571;81;20930;-73
2021/05/26 06:01:07;;;;;;;11.33;7.30;;;;;;;29.64;41.20;101347.56;1743573;81;20934;-72
2021/05/26 06:03:34;;;;;;;14.05;6.60;;;;;;;29.83;40.26;101347.34;1743672;82;21103;-72
2021/05/26 06:06:00;;;;;;;9.55;6.85;;;;;;;30.03;40.53;101350.95;1743783;82;20919;-74
2021/05/26 06:08:27;;;;;;;19.48;7.80;;;;;;;30.24;39.95;101349.99;1743594;81;21423;-74
2021/05/26 06:10:54;;;;;;;13.68;7.25;;;;;;;30.46;39.75;101348.48;1743676;81;20958;-73
2021/05/26 06:13:21;;;;;;;10.55;6.62;;;;;;;30.74;39.20;101349.67;1743836;81;20902;-74
2021/05/26 06:15:48;;;;;;;10.68;5.92;;;;;;;31.09;38.76;101349.48;1743565;81;21190;-74
2021/05/26 06:18:18;;;;;;;8.93;5.20;;;;;;;31.37;37.36;101350.56;1743464;82;20898;-74
2021/05/26 06:20:44;;;;;;;9.35;4.50;;;;;;;31.65;36.57;101344.89;1743516;82;20978;-75
2021/05/26 06:23:12;;;;;;;4.78;3.83;;;;;;;31.91;35.96;101348.55;1743578;82;20914;-75
2021/05/26 06:25:40;;;;;;;11.55;5.70;;;;;;;32.14;35.29;101347.51;1743516;81;20910;-76
2021/05/26 06:28:06;;;;;;;3.75;2.67;;;;;;;32.40;35.26;101350.59;1743573;82;21001;-74
2021/05/26 06:30:33;;;;;;;4.72;2.22;;;;;;;32.65;32.09;101347.63;1743555;82;20866;-75
2021/05/26 06:33:00;;;;;;;4.50;2.40;;;;;;;32.90;31.32;101349.80;1743573;80;20922;-76
2021/05/26 06:35:27;;;;;;;4.53;2.52;;;;;;;33.21;30.03;101346.73;1743468;82;20954;-78
2021/05/26 06:37:55;;;;;;;1.90;1.77;;;;;;;33.54;29.55;101338.73;1743494;82;21561;-72
2021/05/26 06:40:22;;;;;;;3.30;1.95;;;;;;;33.79;29.22;101336.77;1743637;82;21054;-78
2021/05/26 06:42:49;;;;;;;8.13;4.05;;;;;;;33.96;28.08;101336.97;1743624;82;21479;-76
2021/05/26 06:45:17;;;;;;;2.65;2.42;;;;;;;34.18;29.72;101340.59;1743651;81;20970;-73
2021/05/26 06:47:43;;;;;;;3.52;2.70;;;;;;;34.24;27.66;101336.91;1735686;81;20923;-75
2021/05/26 06:50:12;;;;;;;4.90;2.10;;;;;;;34.19;27.75;101339.52;1735390;82;20899;-74
2021/05/26 06:52:41;;;;;;;3.58;2.60;;;;;;;34.22;27.86;101333.08;1735282;82;20927;-73
2021/05/26 06:55:10;;;;;;;3.02;1.90;;;;;;;34.41;27.59;101337.09;1735387;82;20923;-74
2021/05/26 06:57:37;;;;;;;3.37;1.98;;;;;;;34.62;27.23;101332.48;1735426;82;20958;-74
2021/05/26 07:00:05;;;;;;;3.22;2.05;;;;;;;34.80;26.82;101326.10;1735503;82;20930;-74
2021/05/26 07:02:33;;;;;;;2.00;1.65;;;;;;;34.93;27.29;101328.28;1736392;82;20895;-74
2021/05/26 07:05:00;;;;;;;3.87;2.02;;;;;;;34.99;25.87;101323.25;1737694;82;21051;-77
2021/05/26 07:07:27;;;;;;;4.87;2.00;;;;;;;34.99;26.02;101317.80;1737634;82;20918;-76
2021/05/26 07:09:54;;;;;;;3.60;1.80;;;;;;;35.16;26.79;101324.77;1738980;82;20979;-73
2021/05/26 07:12:21;;;;;;;4.20;2.05;;;;;;;35.37;26.80;101326.02;1738935;81;20947;-72
2021/05/26 07:14:49;;;;;;;2.87;2.65;;;;;;;35.59;26.22;101315.29;1736493;81;21455;-72
2021/05/26 07:17:17;;;;;;;1.60;1.50;;;;;;;35.78;26.17;101318.72;1735332;82;20996;-73
2021/05/26 07:19:43;;;;;;;1.95;1.77;;;;;;;35.82;25.39;101322.08;1735648;82;20903;-73
2021/05/26 07:22:10;;;;;;;2.00;1.77;;;;;;;35.89;25.83;101321.93;1735537;81;20883;-74
2021/05/26 07:24:41;;;;;;;1.87;1.72;;;;;;;35.87;26.50;101321.34;1735586;81;20950;-74
2021/05/26 07:27:08;;;;;;;2.87;2.17;;;;;;;35.75;26.78;101325.46;1735560;82;20931;-74
2021/05/26 07:29:35;;;;;;;2.52;2.00;;;;;;;35.60;25.89;101321.06;1735386;82;21659;-73
2021/05/26 07:32:02;;;;;;;4.40;2.12;;;;;;;35.35;25.46;101320.83;1735409;82;20895;-74
2021/05/26 07:34:29;;;;;;;2.83;2.30;;;;;;;34.81;25.54;101322.30;1735630;82;20927;-75
2021/05/26 07:36:56;;;;;;;2.00;1.90;;;;;;;34.57;26.11;101320.59;1735543;81;21011;-75
2021/05/26 07:39:28;;;;;;;3.60;2.00;;;;;;;34.40;27.31;101321.83;1735603;81;21001;-76
2021/05/26 07:41:53;;;;;;;3.47;2.10;;;;;;;34.28;28.08;101319.05;1735486;81;21026;-75
2021/05/26 07:44:20;;;;;;;4.83;2.83;;;;;;;34.09;27.28;101316.09;1735449;82;21567;-73
2021/05/26 07:46:47;;;;;;;3.00;2.77;;;;;;;33.69;26.93;101320.70;1735428;81;20998;-74
2021/05/26 07:49:15;;;;;;;3.75;2.77;;;;;;;33.37;27.53;101312.16;1735438;81;20975;-73
2021/05/26 07:51:49;;;;;;;3.45;2.80;;;;;;;33.20;28.68;101312.45;1735434;82;20913;-73
2021/05/26 07:54:13;;;;;;;4.65;2.77;;;;;;;33.18;28.41;101312.67;1735204;82;21129;-72
2021/05/26 07:56:40;;;;;;;2.85;2.65;;;;;;;33.12;29.25;101310.02;1735432;82;20895;-74
2021/05/26 07:59:08;;;;;;;3.40;3.15;;;;;;;33.06;29.12;101310.92;1735508;81;20871;-72
2021/05/26 08:01:36;;;;;;;4.17;2.67;;;;;;;32.90;29.34;101313.12;1735348;82;21014;-82
2021/05/26 08:04:03;;;;;;;6.00;2.98;;;;;;;32.72;29.81;101311.20;1735433;82;20934;-74
2021/05/26 08:06:31;;;;;;;3.90;2.80;;;;;;;32.70;29.91;101309.77;1735395;81;21168;-74
2021/05/26 08:08:57;;;;;;;6.03;3.27;;;;;;;32.75;30.04;101309.92;1735471;81;21010;-73
2021/05/26 08:11:25;;;;;;;3.60;3.30;;;;;;;32.82;30.63;101306.10;1735434;82;21447;-73
2021/05/26 08:13:52;;;;;;;4.12;3.33;;;;;;;32.76;30.65;101303.45;1735619;82;20914;-73
2021/05/26 08:16:21;;;;;;;5.37;3.60;;;;;;;32.66;30.93;101308.54;1735327;81;20891;-73
2021/05/26 08:18:49;;;;;;;3.80;3.50;;;;;;;32.48;31.05;101307.92;1735458;82;21412;-73
2021/05/26 08:21:18;;;;;;;4.28;3.75;;;;;;;32.32;31.36;101312.02;1735302;82;20972;-74
2021/05/26 08:23:45;;;;;;;3.62;3.02;;;;;;;32.14;31.59;101308.69;1735393;82;20978;-74
2021/05/26 08:26:16;;;;;;;6.20;3.22;;;;;;;31.97;30.80;101309.21;1735507;81;20903;-74
2021/05/26 08:28:43;;;;;;;5.37;3.80;;;;;;;31.87;30.72;101309.34;1735195;82;20907;-73
2021/05/26 08:31:10;;;;;;;4.05;3.75;;;;;;;31.79;31.15;101305.83;1735378;82;21063;-73
2021/05/26 08:33:37;;;;;;;8.00;3.58;;;;;;;31.80;31.48;101305.30;1735238;82;20966;-73
2021/05/26 08:36:04;;;;;;;3.62;3.33;;;;;;;31.79;31.28;101307.69;1735488;82;21420;-75
2021/05/26 08:38:31;;;;;;;3.77;3.35;;;;;;;31.67;31.50;101310.79;1735319;81;20923;-73
2021/05/26 08:40:58;;;;;;;3.75;3.35;;;;;;;31.70;31.61;101307.09;1735386;82;20962;-73
2021/05/26 08:43:26;;;;;;;3.83;3.52;;;;;;;31.83;31.50;101306.21;1715010;82;21885;-73
2021/05/26 08:45:53;;;;;;;5.15;3.33;;;;;;;32.04;31.25;101303.75;1735591;82;20930;-73
2021/05/26 08:48:19;;;;;;;3.30;2.98;;;;;;;32.36;30.75;101307.81;1735542;82;20899;-74
2021/05/26 08:50:46;;;;;;;7.72;6.92;;;;;;;32.57;29.93;101304.77;1735740;82;20994;-72
2021/05/26 08:53:13;;;;;;;3.85;3.50;;;;;;;32.75;29.61;101302.63;1715935;82;21408;-74
2021/05/26 08:55:39;;;;;;;4.12;3.72;;;;;;;32.92;29.42;101303.40;1735493;82;21612;-77
2021/05/26 08:58:07;;;;;;;3.42;3.02;;;;;;;33.20;29.17;101304.30;1735791;82;20915;-75
2021/05/26 09:00:34;;;;;;;5.08;3.70;;;;;;;33.35;28.28;101302.55;1736266;81;20907;-74
2021/05/26 09:03:06;;;;;;;4.20;3.83;;;;;;;33.37;28.21;101301.28;1736825;82;21416;-76
2021/05/26 09:05:36;;;;;;;6.00;4.50;;;;;;;33.49;28.74;101301.34;1735879;82;20859;-72
2021/05/26 09:08:18;;;;;;;5.03;3.52;;;;;;;33.82;29.31;101300.12;1735692;82;21079;-73
2021/05/26 09:10:49;;;;;;;7.45;4.50;;;;;;;34.25;29.26;101302.66;1735463;81;21479;-73
2021/05/26 09:13:37;;;;;;;6.20;3.92;;;;;;;34.47;27.42;101295.30;1735069;81;20950;-74
2021/05/26 09:16:07;;;;;;;4.50;4.12;;;;;;;34.42;27.19;101293.28;1735454;82;20915;-74
2021/05/26 09:18:55;;;;;;;6.72;4.28;;;;;;;34.36;28.14;101292.03;1714723;82;20903;-73
2021/05/26 09:21:46;;;;;;;5.85;4.75;;;;;;;34.35;28.24;101292.57;1726544;82;21121;-73
2021/05/26 09:24:25;;;;;;;4.72;4.22;;;;;;;34.50;28.25;101282.56;1735490;82;20994;-73
2021/05/26 09:27:03;;;;;;;5.00;4.17;;;;;;;34.73;27.02;101285.88;1735381;82;20891;-74
2021/05/26 09:29:34;;;;;;;4.85;3.12;;;;;;;34.88;26.58;101288.97;1735236;82;20887;-73
2021/05/26 09:32:22;;;;;;;5.35;3.87;;;;;;;34.92;25.82;101285.20;1735428;81;20879;-73
2021/05/26 09:34:56;;;;;;;8.70;4.40;;;;;;;34.66;25.91;101281.91;1735442;82;21064;-73
2021/05/26 09:37:27;;;;;;;4.75;4.20;;;;;;;34.31;26.47;101283.20;1735266;82;21025;-72
2021/05/26 09:40:06;;;;;;;5.10;4.08;;;;;;;34.15;26.52;101281.98;1735474;81;20851;-73
2021/05/26 09:42:40;;;;;;;4.10;3.70;;;;;;;34.16;26.15;101285.53;1735508;82;21412;-72
2021/05/26 09:45:13;;;;;;;5.92;4.10;;;;;;;34.26;26.47;101280.33;1735256;82;20994;-72
2021/05/26 09:47:50;;;;;;;5.42;4.92;;;;;;;34.35;26.21;101274.87;1735220;81;21106;-72
2021/05/26 09:50:34;;;;;;;4.10;3.70;;;;;;;34.21;26.57;101268.78;1735289;82;21010;-73
2021/05/26 09:53:16;;;;;;;5.03;4.20;;;;;;;34.16;25.94;101270.02;1735419;81;21400;-74
2021/05/26 09:55:44;;;;;;;4.83;4.25;;;;;;;34.18;26.45;101265.17;1735398;82;21036;-73
2021/05/26 09:58:13;;;;;;;5.58;3.92;;;;;;;34.37;26.16;101260.45;1735391;82;20906;-74
2021/05/26 10:00:43;;;;;;;7.05;4.40;;;;;;;34.56;26.50;101264.45;1735345;82;21067;-75
2021/05/26 10:03:10;;;;;;;7.75;4.47;;;;;;;34.55;26.11;101261.42;1735306;81;20887;-73
2021/05/26 10:05:37;;;;;;;7.25;4.62;;;;;;;34.38;26.01;101261.30;1735323;82;20986;-74
2021/05/26 10:08:22;;;;;;;6.35;4.65;;;;;;;34.04;26.26;101272.69;1735363;81;21036;-74
2021/05/26 10:11:05;;;;;;;7.70;4.53;;;;;;;34.00;27.19;101274.75;1728739;81;21153;-73
2021/05/26 10:13:34;;;;;;;6.25;5.00;;;;;;;33.77;27.56;101267.31;1728658;83;21653;-74
2021/05/26 10:16:01;;;;;;;5.42;4.92;;;;;;;33.65;27.76;101264.02;1729018;83;20948;-75
2021/05/26 10:18:31;;;;;;;6.87;4.83;;;;;;;33.40;27.65;101268.19;1728673;81;20917;-75
2021/05/26 10:21:00;;;;;;;5.58;4.78;;;;;;;33.03;28.66;101265.97;1728709;83;21575;-77
2021/05/26 10:23:26;;;;;;;5.65;4.53;;;;;;;32.61;28.38;101263.03;1704913;83;21497;-73
2021/05/26 10:25:54;;;;;;;5.85;5.25;;;;;;;32.25;28.32;101259.12;1704580;83;21104;-75
2021/05/26 10:28:31;;;;;;;7.35;5.90;;;;;;;31.83;29.33;101257.39;1728614;83;20984;-73
2021/05/26 10:31:01;;;;;;;6.22;5.53;;;;;;;31.57;30.14;101264.63;1728779;83;20989;-76
2021/05/26 10:33:45;;;;;;;9.98;5.58;;;;;;;31.34;30.84;101257.48;1728749;81;21537;-74
2021/05/26 10:36:13;;;;;;;6.65;5.65;;;;;;;31.32;30.84;101259.58;1710583;83;20980;-75
2021/05/26 10:38:59;;;;;;;8.30;5.25;;;;;;;31.31;31.15;101257.39;1728758;83;21093;-78
2021/05/26 10:41:27;;;;;;;5.62;5.00;;;;;;;31.50;31.29;101252.95;1728730;81;21153;-76
2021/05/26 10:43:56;;;;;;;9.60;7.58;;;;;;;31.78;31.50;101254.50;1704779;83;20961;-74
2021/05/26 10:46:41;;;;;;;6.65;6.05;;;;;;;31.99;31.12;101250.13;1731684;82;20911;-75
2021/05/26 10:49:10;;;;;;;5.62;5.12;;;;;;;32.18;30.85;101248.84;1744774;81;21467;-76
2021/05/26 10:51:57;;;;;;;7.92;5.10;;;;;;;32.47;31.40;101245.17;1746815;82;21046;-75
2021/05/26 10:54:44;;;;;;;8.25;5.58;;;;;;;32.72;29.23;101247.89;1743422;82;20930;-74
2021/05/26 10:57:11;;;;;;;10.10;5.47;;;;;;;32.95;29.98;101243.16;1743361;81;20997;-77
2021/05/26 11:02:37;;;;;;;10.93;4.87;;;;;;;33.52;29.40;101241.58;1776483;79;23215;-74
2021/05/26 11:05:32;;;;;;;9.68;5.92;;;;;;;33.60;29.80;101241.30;1744092;80;20937;-76
2021/05/26 11:08:21;;;;;;;7.50;6.45;;;;;;;33.72;28.90;101230.45;1749252;80;21080;-79
2021/05/26 11:10:50;;;;;;;9.20;6.33;;;;;;;33.93;28.65;101231.30;1749180;80;20974;-79
2021/05/26 11:13:21;;;;;;;8.28;6.30;;;;;;;33.95;28.25;101226.97;1749116;82;20930;-81
2021/05/26 11:15:56;;;;;;;10.15;6.60;;;;;;;33.97;27.83;101228.41;1749300;82;21025;-81
2021/05/26 11:20:53;;;;;;;8.15;6.22;;;;;;;33.89;28.58;101228.74;1749325;80;21649;-80
2021/05/26 11:23:20;;;;;;;7.42;6.72;;;;;;;33.80;27.35;101223.34;1749234;82;20910;-79
2021/05/26 11:25:53;;;;;;;7.95;6.08;;;;;;;33.65;27.30;101223.21;1749163;80;20946;-82
2021/05/26 11:28:31;;;;;;;7.77;7.03;;;;;;;33.54;28.19;101219.88;1749596;82;21411;-80
2021/05/26 11:31:08;;;;;;;9.43;6.30;;;;;;;33.40;28.84;101215.16;1749010;81;20957;-79
2021/05/26 11:33:36;;;;;;;9.65;6.78;;;;;;;33.26;29.22;101211.47;1749232;82;21127;-80
2021/05/26 11:36:11;;;;;;;10.25;6.42;;;;;;;33.09;28.57;101216.18;1749126;82;21430;-78